Main page
METAR-TAF:

METAR-TAF

Airports :

Lydd Airport

Lydd, England

latitude: 50-57N, longitude: 000-56E, elevation: 3 m

Current weather observation

The report was made 49 minutes ago, at 19:20 UTC
Wind 7 kt from the West, varying between West/Southwest and Northwest
Temperature 8°C
Humidity 87%
Pressure 1028 hPa
Visibility 10 km or more

METAR: EGMD 241920Z AUTO 27007KT 250V310 9999 NCD 08/06 Q1028

Time: 20:09 (20:09 UTC)

Forecast

The report was made 3 hours and 8 minutes ago, at 17:01 UTC
Forecast valid from 24 at 18 UTC to 25 at 03 UTC
Wind 10 kt from the West
Visibility 10 km or more
Few clouds at a height of 4500 ft

TAF: EGMD 241701Z 2418/2503 27010KT 9999 FEW045

Weather observations and forecasts of more than 4000 airports (METAR and TAF reports).

The available stations are represented by yellow and red dots on the map.

Hover mouse over dot to see the name of the station.

Then click to see weather observations and forecasts.

To change the map : click on the green buttons with a black cross to zoom in, on the green button with a dash to zoom out, or on the green arrows for adjacent maps.


METAR-TAF: